sensor_id;sensor_type;location;lat;lon;timestamp;temperature;humidity
59025;DHT22;44806;48.008;13.666;2022-11-18T00:00:11;7.60;99.90
59025;DHT22;44806;48.008;13.666;2022-11-18T00:02:39;7.70;99.90
59025;DHT22;44806;48.008;13.666;2022-11-18T00:05:07;7.70;99.90
59025;DHT22;44806;48.008;13.666;2022-11-18T00:07:34;7.80;99.90
59025;DHT22;44806;48.008;13.666;2022-11-18T00:10:01;7.80;99.90
59025;DHT22;44806;48.008;13.666;2022-11-18T00:12:28;7.80;99.90
59025;DHT22;44806;48.008;13.666;2022-11-18T00:15:13;7.90;99.90
59025;DHT22;44806;48.008;13.666;2022-11-18T00:17:42;7.90;99.90
59025;DHT22;44806;48.008;13.666;2022-11-18T00:20:09;7.90;99.90
59025;DHT22;44806;48.008;13.666;2022-11-18T00:22:39;7.90;99.90
59025;DHT22;44806;48.008;13.666;2022-11-18T00:25:06;7.80;99.90
59025;DHT22;44806;48.008;13.666;2022-11-18T00:27:33;7.70;99.90
59025;DHT22;44806;48.008;13.666;2022-11-18T00:30:01;7.70;99.90
59025;DHT22;44806;48.008;13.666;2022-11-18T00:32:28;7.70;99.90
59025;DHT22;44806;48.008;13.666;2022-11-18T00:34:57;7.80;99.90
59025;DHT22;44806;48.008;13.666;2022-11-18T00:37:24;7.80;99.90
59025;DHT22;44806;48.008;13.666;2022-11-18T00:39:51;7.90;99.90
59025;DHT22;44806;48.008;13.666;2022-11-18T00:42:18;8.00;99.90
59025;DHT22;44806;48.008;13.666;2022-11-18T00:45:03;8.00;99.90
59025;DHT22;44806;48.008;13.666;2022-11-18T00:47:30;7.90;99.90
59025;DHT22;44806;48.008;13.666;2022-11-18T00:49:59;7.90;99.90
59025;DHT22;44806;48.008;13.666;2022-11-18T00:52:26;7.90;99.90
59025;DHT22;44806;48.008;13.666;2022-11-18T00:54:53;7.90;99.90
59025;DHT22;44806;48.008;13.666;2022-11-18T00:57:20;7.90;99.90
59025;DHT22;44806;48.008;13.666;2022-11-18T00:59:48;8.00;99.90
59025;DHT22;44806;48.008;13.666;2022-11-18T01:02:15;8.00;99.90
59025;DHT22;44806;48.008;13.666;2022-11-18T01:04:42;8.00;99.90
59025;DHT22;44806;48.008;13.666;2022-11-18T01:07:11;8.00;99.90
59025;DHT22;44806;48.008;13.666;2022-11-18T01:09:38;8.00;99.90
59025;DHT22;44806;48.008;13.666;2022-11-18T01:12:05;8.00;99.90
59025;DHT22;44806;48.008;13.666;2022-11-18T01:14:50;8.00;99.90
59025;DHT22;44806;48.008;13.666;2022-11-18T01:17:17;8.00;99.90
59025;DHT22;44806;48.008;13.666;2022-11-18T01:19:44;8.00;99.90
59025;DHT22;44806;48.008;13.666;2022-11-18T01:22:13;8.00;99.90
59025;DHT22;44806;48.008;13.666;2022-11-18T01:24:40;7.90;99.90
59025;DHT22;44806;48.008;13.666;2022-11-18T01:27:07;7.80;99.90
59025;DHT22;44806;48.008;13.666;2022-11-18T01:29:35;7.70;99.90
59025;DHT22;44806;48.008;13.666;2022-11-18T01:32:02;7.80;99.90
59025;DHT22;44806;48.008;13.666;2022-11-18T01:34:30;7.70;99.90
59025;DHT22;44806;48.008;13.666;2022-11-18T01:36:57;7.70;99.90
59025;DHT22;44806;48.008;13.666;2022-11-18T01:39:25;7.70;99.90
59025;DHT22;44806;48.008;13.666;2022-11-18T01:41:53;7.70;99.90
59025;DHT22;44806;48.008;13.666;2022-11-18T01:47:27;7.60;99.90
59025;DHT22;44806;48.008;13.666;2022-11-18T01:49:56;7.60;99.90
59025;DHT22;44806;48.008;13.666;2022-11-18T01:52:25;7.60;99.90
59025;DHT22;44806;48.008;13.666;2022-11-18T01:54:57;7.60;99.90
59025;DHT22;44806;48.008;13.666;2022-11-18T01:57:26;7.70;99.90
59025;DHT22;44806;48.008;13.666;2022-11-18T01:59:57;7.70;99.90
59025;DHT22;44806;48.008;13.666;2022-11-18T02:02:25;7.80;99.90
59025;DHT22;44806;48.008;13.666;2022-11-18T02:04:54;7.80;99.90
59025;DHT22;44806;48.008;13.666;2022-11-18T02:07:22;7.90;99.90
59025;DHT22;44806;48.008;13.666;2022-11-18T02:09:51;7.80;99.90
59025;DHT22;44806;48.008;13.666;2022-11-18T02:12:20;7.90;99.90
59025;DHT22;44806;48.008;13.666;2022-11-18T02:14:48;7.80;99.90
59025;DHT22;44806;48.008;13.666;2022-11-18T02:17:26;7.80;99.90
59025;DHT22;44806;48.008;13.666;2022-11-18T02:23:23;7.80;99.90
59025;DHT22;44806;48.008;13.666;2022-11-18T02:26:12;7.90;99.90
59025;DHT22;44806;48.008;13.666;2022-11-18T02:28:59;8.00;99.90
59025;DHT22;44806;48.008;13.666;2022-11-18T02:31:31;8.00;99.90
59025;DHT22;44806;48.008;13.666;2022-11-18T02:34:05;7.90;99.90
59025;DHT22;44806;48.008;13.666;2022-11-18T02:36:41;7.90;99.90
59025;DHT22;44806;48.008;13.666;2022-11-18T02:39:12;8.00;99.90
59025;DHT22;44806;48.008;13.666;2022-11-18T02:41:43;8.00;99.90
59025;DHT22;44806;48.008;13.666;2022-11-18T02:44:14;8.00;99.90
59025;DHT22;44806;48.008;13.666;2022-11-18T02:46:45;8.00;99.90
59025;DHT22;44806;48.008;13.666;2022-11-18T02:49:17;8.00;99.90
59025;DHT22;44806;48.008;13.666;2022-11-18T02:51:46;8.00;99.90
59025;DHT22;44806;48.008;13.666;2022-11-18T02:54:17;8.00;99.90
59025;DHT22;44806;48.008;13.666;2022-11-18T02:56:46;8.00;99.90
59025;DHT22;44806;48.008;13.666;2022-11-18T02:59:18;8.00;99.90
59025;DHT22;44806;48.008;13.666;2022-11-18T03:01:46;8.00;99.90
59025;DHT22;44806;48.008;13.666;2022-11-18T03:04:14;8.00;99.90
59025;DHT22;44806;48.008;13.666;2022-11-18T03:06:47;8.00;99.90
59025;DHT22;44806;48.008;13.666;2022-11-18T03:09:19;8.00;99.90
59025;DHT22;44806;48.008;13.666;2022-11-18T03:11:55;8.00;99.90
59025;DHT22;44806;48.008;13.666;2022-11-18T03:14:34;8.00;99.90
59025;DHT22;44806;48.008;13.666;2022-11-18T03:17:05;8.00;99.90
59025;DHT22;44806;48.008;13.666;2022-11-18T03:19:44;8.10;99.90
59025;DHT22;44806;48.008;13.666;2022-11-18T03:22:18;8.10;99.90
59025;DHT22;44806;48.008;13.666;2022-11-18T03:24:53;8.10;99.90
59025;DHT22;44806;48.008;13.666;2022-11-18T03:27:25;8.10;99.90
59025;DHT22;44806;48.008;13.666;2022-11-18T03:29:58;8.20;99.90
59025;DHT22;44806;48.008;13.666;2022-11-18T03:32:30;8.20;99.90
59025;DHT22;44806;48.008;13.666;2022-11-18T03:35:00;8.20;99.90
59025;DHT22;44806;48.008;13.666;2022-11-18T03:37:28;8.10;99.90
59025;DHT22;44806;48.008;13.666;2022-11-18T03:40:00;8.10;99.90
59025;DHT22;44806;48.008;13.666;2022-11-18T03:42:34;8.10;99.90
59025;DHT22;44806;48.008;13.666;2022-11-18T03:45:06;8.10;99.90
59025;DHT22;44806;48.008;13.666;2022-11-18T03:47:39;8.20;99.90
59025;DHT22;44806;48.008;13.666;2022-11-18T03:50:11;8.20;99.90
59025;DHT22;44806;48.008;13.666;2022-11-18T03:52:40;8.20;99.90
59025;DHT22;44806;48.008;13.666;2022-11-18T03:55:12;8.20;99.90
59025;DHT22;44806;48.008;13.666;2022-11-18T03:57:45;8.10;99.90
59025;DHT22;44806;48.008;13.666;2022-11-18T04:00:17;8.20;99.90
59025;DHT22;44806;48.008;13.666;2022-11-18T04:02:46;8.20;99.90
59025;DHT22;44806;48.008;13.666;2022-11-18T04:05:16;8.20;99.90
59025;DHT22;44806;48.008;13.666;2022-11-18T04:07:53;8.20;99.90
59025;DHT22;44806;48.008;13.666;2022-11-18T04:10:21;8.20;99.90
59025;DHT22;44806;48.008;13.666;2022-11-18T04:12:54;8.20;99.90
59025;DHT22;44806;48.008;13.666;2022-11-18T04:15:25;8.30;99.90
59025;DHT22;44806;48.008;13.666;2022-11-18T04:17:52;8.30;99.90
59025;DHT22;44806;48.008;13.666;2022-11-18T04:20:20;8.30;99.90
59025;DHT22;44806;48.008;13.666;2022-11-18T04:22:48;8.30;99.90
59025;DHT22;44806;48.008;13.666;2022-11-18T04:25:15;8.20;99.90
59025;DHT22;44806;48.008;13.666;2022-11-18T04:27:42;8.20;99.90
59025;DHT22;44806;48.008;13.666;2022-11-18T04:30:10;8.20;99.90
59025;DHT22;44806;48.008;13.666;2022-11-18T04:32:39;8.20;99.90
59025;DHT22;44806;48.008;13.666;2022-11-18T04:35:07;8.20;99.90
59025;DHT22;44806;48.008;13.666;2022-11-18T04:37:34;8.20;99.90
59025;DHT22;44806;48.008;13.666;2022-11-18T04:40:01;8.20;99.90
59025;DHT22;44806;48.008;13.666;2022-11-18T04:42:28;8.20;99.90
59025;DHT22;44806;48.008;13.666;2022-11-18T04:44:56;8.20;99.90
59025;DHT22;44806;48.008;13.666;2022-11-18T04:47:23;8.20;99.90
59025;DHT22;44806;48.008;13.666;2022-11-18T04:49:51;8.30;99.90
59025;DHT22;44806;48.008;13.666;2022-11-18T04:52:18;8.30;99.90
59025;DHT22;44806;48.008;13.666;2022-11-18T04:54:46;8.30;99.90
59025;DHT22;44806;48.008;13.666;2022-11-18T04:57:13;8.20;99.90
59025;DHT22;44806;48.008;13.666;2022-11-18T04:59:40;8.10;99.90
59025;DHT22;44806;48.008;13.666;2022-11-18T05:02:07;8.20;99.90
59025;DHT22;44806;48.008;13.666;2022-11-18T05:04:34;8.20;99.90
59025;DHT22;44806;48.008;13.666;2022-11-18T05:07:04;8.20;99.90
59025;DHT22;44806;48.008;13.666;2022-11-18T05:09:32;8.20;99.90
59025;DHT22;44806;48.008;13.666;2022-11-18T05:12:00;8.30;99.90
59025;DHT22;44806;48.008;13.666;2022-11-18T05:14:44;8.30;99.90
59025;DHT22;44806;48.008;13.666;2022-11-18T05:17:12;8.30;99.90
59025;DHT22;44806;48.008;13.666;2022-11-18T05:19:39;8.40;99.90
59025;DHT22;44806;48.008;13.666;2022-11-18T05:22:07;8.30;99.90
59025;DHT22;44806;48.008;13.666;2022-11-18T05:24:34;8.40;99.90
59025;DHT22;44806;48.008;13.666;2022-11-18T05:27:02;8.40;99.90
59025;DHT22;44806;48.008;13.666;2022-11-18T05:29:29;8.30;99.90
59025;DHT22;44806;48.008;13.666;2022-11-18T05:31:58;8.30;99.90
59025;DHT22;44806;48.008;13.666;2022-11-18T05:34:25;8.30;99.90
59025;DHT22;44806;48.008;13.666;2022-11-18T05:36:55;8.30;99.90
59025;DHT22;44806;48.008;13.666;2022-11-18T05:39:24;8.30;99.90
59025;DHT22;44806;48.008;13.666;2022-11-18T05:41:51;8.30;99.90
59025;DHT22;44806;48.008;13.666;2022-11-18T05:44:35;8.20;99.90
59025;DHT22;44806;48.008;13.666;2022-11-18T05:47:02;8.20;99.90
59025;DHT22;44806;48.008;13.666;2022-11-18T05:49:29;8.20;99.90
59025;DHT22;44806;48.008;13.666;2022-11-18T05:51:56;8.20;99.90
59025;DHT22;44806;48.008;13.666;2022-11-18T05:54:25;8.20;99.90
59025;DHT22;44806;48.008;13.666;2022-11-18T05:56:53;8.20;99.90
59025;DHT22;44806;48.008;13.666;2022-11-18T05:59:20;8.20;99.90
59025;DHT22;44806;48.008;13.666;2022-11-18T06:01:49;8.20;99.90
59025;DHT22;44806;48.008;13.666;2022-11-18T06:04:21;8.20;99.90
59025;DHT22;44806;48.008;13.666;2022-11-18T06:06:50;8.20;99.90
59025;DHT22;44806;48.008;13.666;2022-11-18T06:09:21;8.20;99.90
59025;DHT22;44806;48.008;13.666;2022-11-18T06:11:56;8.20;99.90
59025;DHT22;44806;48.008;13.666;2022-11-18T06:14:26;8.20;99.90
59025;DHT22;44806;48.008;13.666;2022-11-18T06:16:57;8.20;99.90
59025;DHT22;44806;48.008;13.666;2022-11-18T06:19:25;8.20;99.90
59025;DHT22;44806;48.008;13.666;2022-11-18T06:21:53;8.20;99.90
59025;DHT22;44806;48.008;13.666;2022-11-18T06:24:20;8.20;99.90
59025;DHT22;44806;48.008;13.666;2022-11-18T06:26:48;8.30;99.90
59025;DHT22;44806;48.008;13.666;2022-11-18T06:29:17;8.20;99.90
59025;DHT22;44806;48.008;13.666;2022-11-18T06:31:45;8.20;99.90
59025;DHT22;44806;48.008;13.666;2022-11-18T06:34:12;8.20;99.90
59025;DHT22;44806;48.008;13.666;2022-11-18T06:36:39;8.20;99.90
59025;DHT22;44806;48.008;13.666;2022-11-18T06:39:07;8.20;99.90
59025;DHT22;44806;48.008;13.666;2022-11-18T06:41:34;8.20;99.90
59025;DHT22;44806;48.008;13.666;2022-11-18T06:44:01;8.20;99.90
59025;DHT22;44806;48.008;13.666;2022-11-18T06:46:29;8.30;99.90
59025;DHT22;44806;48.008;13.666;2022-11-18T06:49:13;8.30;99.90
59025;DHT22;44806;48.008;13.666;2022-11-18T06:51:41;8.30;99.90
59025;DHT22;44806;48.008;13.666;2022-11-18T06:54:08;8.30;99.90
59025;DHT22;44806;48.008;13.666;2022-11-18T06:56:35;8.30;99.90
59025;DHT22;44806;48.008;13.666;2022-11-18T06:59:02;8.30;99.90
59025;DHT22;44806;48.008;13.666;2022-11-18T07:01:37;8.30;99.90
59025;DHT22;44806;48.008;13.666;2022-11-18T07:04:04;8.30;99.90
59025;DHT22;44806;48.008;13.666;2022-11-18T07:06:34;8.30;99.90
59025;DHT22;44806;48.008;13.666;2022-11-18T07:09:03;8.20;99.90
59025;DHT22;44806;48.008;13.666;2022-11-18T07:11:30;8.20;99.90
59025;DHT22;44806;48.008;13.666;2022-11-18T07:13:58;8.10;99.90
59025;DHT22;44806;48.008;13.666;2022-11-18T07:16:32;8.10;99.90
59025;DHT22;44806;48.008;13.666;2022-11-18T07:18:59;8.10;99.90
59025;DHT22;44806;48.008;13.666;2022-11-18T07:21:27;8.10;99.90
59025;DHT22;44806;48.008;13.666;2022-11-18T07:23:55;8.10;99.90
59025;DHT22;44806;48.008;13.666;2022-11-18T07:26:22;8.10;99.90
59025;DHT22;44806;48.008;13.666;2022-11-18T07:28:50;8.10;99.90
59025;DHT22;44806;48.008;13.666;2022-11-18T07:31:18;8.10;99.90
59025;DHT22;44806;48.008;13.666;2022-11-18T07:33:48;8.10;99.90
59025;DHT22;44806;48.008;13.666;2022-11-18T07:36:19;8.20;99.90
59025;DHT22;44806;48.008;13.666;2022-11-18T07:38:47;8.20;99.90
59025;DHT22;44806;48.008;13.666;2022-11-18T07:41:16;8.20;99.90
59025;DHT22;44806;48.008;13.666;2022-11-18T07:43:44;8.20;99.90
59025;DHT22;44806;48.008;13.666;2022-11-18T07:46:13;8.20;99.90
59025;DHT22;44806;48.008;13.666;2022-11-18T07:48:42;8.20;99.90
59025;DHT22;44806;48.008;13.666;2022-11-18T07:51:11;8.20;99.90
59025;DHT22;44806;48.008;13.666;2022-11-18T07:53:42;8.30;99.90
59025;DHT22;44806;48.008;13.666;2022-11-18T07:56:10;8.30;99.90
59025;DHT22;44806;48.008;13.666;2022-11-18T07:58:38;8.30;99.90
59025;DHT22;44806;48.008;13.666;2022-11-18T08:01:09;8.40;99.90
59025;DHT22;44806;48.008;13.666;2022-11-18T08:03:36;8.50;99.90
59025;DHT22;44806;48.008;13.666;2022-11-18T08:06:05;8.40;99.90
59025;DHT22;44806;48.008;13.666;2022-11-18T08:08:34;8.50;99.90
59025;DHT22;44806;48.008;13.666;2022-11-18T08:11:04;8.50;99.90
59025;DHT22;44806;48.008;13.666;2022-11-18T08:13:32;8.50;99.90
59025;DHT22;44806;48.008;13.666;2022-11-18T08:16:00;8.60;99.90
59025;DHT22;44806;48.008;13.666;2022-11-18T08:18:27;8.60;99.90
59025;DHT22;44806;48.008;13.666;2022-11-18T08:20:55;8.50;99.90
59025;DHT22;44806;48.008;13.666;2022-11-18T08:23:26;8.60;99.90
59025;DHT22;44806;48.008;13.666;2022-11-18T08:26:01;8.50;99.90
59025;DHT22;44806;48.008;13.666;2022-11-18T08:28:29;8.50;99.90
59025;DHT22;44806;48.008;13.666;2022-11-18T08:30:56;8.60;99.90
59025;DHT22;44806;48.008;13.666;2022-11-18T08:33:23;8.60;99.90
59025;DHT22;44806;48.008;13.666;2022-11-18T08:35:51;8.60;99.90
59025;DHT22;44806;48.008;13.666;2022-11-18T08:38:18;8.60;99.90
59025;DHT22;44806;48.008;13.666;2022-11-18T08:40:46;8.60;99.90
59025;DHT22;44806;48.008;13.666;2022-11-18T08:43:15;8.60;99.90
59025;DHT22;44806;48.008;13.666;2022-11-18T08:45:42;8.60;99.90
59025;DHT22;44806;48.008;13.666;2022-11-18T08:48:09;8.60;99.90
59025;DHT22;44806;48.008;13.666;2022-11-18T08:50:39;8.60;99.90
59025;DHT22;44806;48.008;13.666;2022-11-18T08:53:07;8.60;99.90
59025;DHT22;44806;48.008;13.666;2022-11-18T08:55:34;8.50;99.90
59025;DHT22;44806;48.008;13.666;2022-11-18T08:58:01;8.50;99.90
59025;DHT22;44806;48.008;13.666;2022-11-18T09:00:30;8.60;99.90
59025;DHT22;44806;48.008;13.666;2022-11-18T09:02:57;8.60;99.90
59025;DHT22;44806;48.008;13.666;2022-11-18T09:05:24;8.60;99.90
59025;DHT22;44806;48.008;13.666;2022-11-18T09:07:51;8.60;99.90
59025;DHT22;44806;48.008;13.666;2022-11-18T09:10:19;8.60;99.90
59025;DHT22;44806;48.008;13.666;2022-11-18T09:12:46;8.60;99.90
59025;DHT22;44806;48.008;13.666;2022-11-18T09:15:13;8.70;99.90
59025;DHT22;44806;48.008;13.666;2022-11-18T09:17:42;8.70;99.90
59025;DHT22;44806;48.008;13.666;2022-11-18T09:20:09;8.60;99.90
59025;DHT22;44806;48.008;13.666;2022-11-18T09:22:37;8.70;99.90
59025;DHT22;44806;48.008;13.666;2022-11-18T09:25:05;8.70;99.90
59025;DHT22;44806;48.008;13.666;2022-11-18T09:27:33;8.70;99.90
59025;DHT22;44806;48.008;13.666;2022-11-18T09:30:00;8.70;99.90
59025;DHT22;44806;48.008;13.666;2022-11-18T09:32:27;8.70;99.90
59025;DHT22;44806;48.008;13.666;2022-11-18T09:34:56;8.80;99.90
59025;DHT22;44806;48.008;13.666;2022-11-18T09:37:23;8.80;99.90
59025;DHT22;44806;48.008;13.666;2022-11-18T09:39:50;8.90;99.90
59025;DHT22;44806;48.008;13.666;2022-11-18T09:42:28;8.90;99.90
59025;DHT22;44806;48.008;13.666;2022-11-18T09:45:18;8.90;99.90
59025;DHT22;44806;48.008;13.666;2022-11-18T09:47:48;9.00;99.90
59025;DHT22;44806;48.008;13.666;2022-11-18T09:50:19;9.00;99.90
59025;DHT22;44806;48.008;13.666;2022-11-18T09:52:51;9.00;99.90
59025;DHT22;44806;48.008;13.666;2022-11-18T09:55:22;9.10;99.90
59025;DHT22;44806;48.008;13.666;2022-11-18T09:57:50;9.00;99.90
59025;DHT22;44806;48.008;13.666;2022-11-18T10:00:20;9.00;99.90
59025;DHT22;44806;48.008;13.666;2022-11-18T10:02:57;9.00;99.90
59025;DHT22;44806;48.008;13.666;2022-11-18T10:05:28;9.00;99.90
59025;DHT22;44806;48.008;13.666;2022-11-18T10:08:04;9.00;99.90
59025;DHT22;44806;48.008;13.666;2022-11-18T10:10:41;9.00;99.90
59025;DHT22;44806;48.008;13.666;2022-11-18T10:13:15;9.00;99.90
59025;DHT22;44806;48.008;13.666;2022-11-18T10:15:52;9.00;99.90
59025;DHT22;44806;48.008;13.666;2022-11-18T10:18:26;9.00;99.90
59025;DHT22;44806;48.008;13.666;2022-11-18T10:21:01;9.00;99.90
59025;DHT22;44806;48.008;13.666;2022-11-18T10:23:37;9.10;99.90
59025;DHT22;44806;48.008;13.666;2022-11-18T10:26:09;9.10;99.90
59025;DHT22;44806;48.008;13.666;2022-11-18T10:28:36;9.20;99.90
59025;DHT22;44806;48.008;13.666;2022-11-18T10:31:06;9.20;99.90
59025;DHT22;44806;48.008;13.666;2022-11-18T10:33:34;9.20;99.90
59025;DHT22;44806;48.008;13.666;2022-11-18T10:36:18;9.20;99.90
59025;DHT22;44806;48.008;13.666;2022-11-18T10:38:45;9.30;99.90
59025;DHT22;44806;48.008;13.666;2022-11-18T10:41:15;9.20;99.90
59025;DHT22;44806;48.008;13.666;2022-11-18T10:43:48;9.10;99.90
59025;DHT22;44806;48.008;13.666;2022-11-18T10:46:24;9.10;99.90
59025;DHT22;44806;48.008;13.666;2022-11-18T10:49:13;9.10;99.90
59025;DHT22;44806;48.008;13.666;2022-11-18T10:51:45;9.10;99.90
59025;DHT22;44806;48.008;13.666;2022-11-18T10:54:18;9.10;99.90
59025;DHT22;44806;48.008;13.666;2022-11-18T10:56:48;9.00;99.90
59025;DHT22;44806;48.008;13.666;2022-11-18T10:59:24;9.00;99.90
59025;DHT22;44806;48.008;13.666;2022-11-18T11:02:01;9.00;99.90
59025;DHT22;44806;48.008;13.666;2022-11-18T11:04:30;9.00;99.90
59025;DHT22;44806;48.008;13.666;2022-11-18T11:07:12;9.00;99.90
59025;DHT22;44806;48.008;13.666;2022-11-18T11:09:40;8.90;99.90
59025;DHT22;44806;48.008;13.666;2022-11-18T11:12:12;9.00;99.90
59025;DHT22;44806;48.008;13.666;2022-11-18T11:14:47;9.00;99.90
59025;DHT22;44806;48.008;13.666;2022-11-18T11:17:20;8.90;99.90
59025;DHT22;44806;48.008;13.666;2022-11-18T11:20:01;8.90;99.90
59025;DHT22;44806;48.008;13.666;2022-11-18T11:22:31;8.90;99.90
59025;DHT22;44806;48.008;13.666;2022-11-18T11:25:00;9.00;99.90
59025;DHT22;44806;48.008;13.666;2022-11-18T11:27:44;8.90;99.90
59025;DHT22;44806;48.008;13.666;2022-11-18T11:30:18;9.00;99.90
59025;DHT22;44806;48.008;13.666;2022-11-18T11:33:10;9.00;99.90
59025;DHT22;44806;48.008;13.666;2022-11-18T11:35:46;9.00;99.90
59025;DHT22;44806;48.008;13.666;2022-11-18T11:38:25;9.00;99.90
59025;DHT22;44806;48.008;13.666;2022-11-18T11:41:04;9.00;99.90
59025;DHT22;44806;48.008;13.666;2022-11-18T11:43:41;9.00;99.90
59025;DHT22;44806;48.008;13.666;2022-11-18T11:46:27;9.00;99.90
59025;DHT22;44806;48.008;13.666;2022-11-18T11:49:12;9.10;99.90
59025;DHT22;44806;48.008;13.666;2022-11-18T11:51:49;9.00;99.90
59025;DHT22;44806;48.008;13.666;2022-11-18T11:54:36;9.00;99.90
59025;DHT22;44806;48.008;13.666;2022-11-18T11:57:13;9.00;99.90
59025;DHT22;44806;48.008;13.666;2022-11-18T11:59:50;8.90;99.90
59025;DHT22;44806;48.008;13.666;2022-11-18T12:02:37;9.00;99.90
59025;DHT22;44806;48.008;13.666;2022-11-18T12:05:15;9.00;99.90
59025;DHT22;44806;48.008;13.666;2022-11-18T12:07:46;9.00;99.90
59025;DHT22;44806;48.008;13.666;2022-11-18T12:10:25;9.00;99.90
59025;DHT22;44806;48.008;13.666;2022-11-18T12:13:02;9.00;99.90
59025;DHT22;44806;48.008;13.666;2022-11-18T12:15:46;9.00;99.90
59025;DHT22;44806;48.008;13.666;2022-11-18T12:18:20;9.00;99.90
59025;DHT22;44806;48.008;13.666;2022-11-18T12:20:54;9.00;99.90
59025;DHT22;44806;48.008;13.666;2022-11-18T12:23:22;9.00;99.90
59025;DHT22;44806;48.008;13.666;2022-11-18T12:25:56;9.10;99.90
59025;DHT22;44806;48.008;13.666;2022-11-18T12:28:26;9.10;99.90
59025;DHT22;44806;48.008;13.666;2022-11-18T12:31:33;9.10;99.90
59025;DHT22;44806;48.008;13.666;2022-11-18T12:34:26;9.10;99.90
59025;DHT22;44806;48.008;13.666;2022-11-18T12:36:55;9.10;99.90
59025;DHT22;44806;48.008;13.666;2022-11-18T12:39:56;9.10;99.90
59025;DHT22;44806;48.008;13.666;2022-11-18T12:42:40;9.00;99.90
59025;DHT22;44806;48.008;13.666;2022-11-18T12:45:55;9.10;99.90
59025;DHT22;44806;48.008;13.666;2022-11-18T12:48:39;9.10;99.90
59025;DHT22;44806;48.008;13.666;2022-11-18T12:51:40;9.00;99.90
59025;DHT22;44806;48.008;13.666;2022-11-18T12:54:30;9.10;99.90
59025;DHT22;44806;48.008;13.666;2022-11-18T12:57:02;9.00;99.90
59025;DHT22;44806;48.008;13.666;2022-11-18T12:59:33;9.10;99.90
59025;DHT22;44806;48.008;13.666;2022-11-18T13:05:03;9.00;99.90
59025;DHT22;44806;48.008;13.666;2022-11-18T13:07:37;9.00;99.90
59025;DHT22;44806;48.008;13.666;2022-11-18T13:10:23;9.00;99.90
59025;DHT22;44806;48.008;13.666;2022-11-18T13:12:56;9.00;99.90
59025;DHT22;44806;48.008;13.666;2022-11-18T13:15:25;9.10;99.90
59025;DHT22;44806;48.008;13.666;2022-11-18T13:18:14;9.10;99.90
59025;DHT22;44806;48.008;13.666;2022-11-18T13:20:43;9.10;99.90
59025;DHT22;44806;48.008;13.666;2022-11-18T13:23:27;9.10;99.90
59025;DHT22;44806;48.008;13.666;2022-11-18T13:26:18;9.10;99.90
59025;DHT22;44806;48.008;13.666;2022-11-18T13:28:59;9.10;99.90
59025;DHT22;44806;48.008;13.666;2022-11-18T13:31:36;9.10;99.90
59025;DHT22;44806;48.008;13.666;2022-11-18T13:34:13;9.10;99.90
59025;DHT22;44806;48.008;13.666;2022-11-18T13:36:44;9.10;99.90
59025;DHT22;44806;48.008;13.666;2022-11-18T13:39:19;9.10;99.90
59025;DHT22;44806;48.008;13.666;2022-11-18T13:41:58;9.10;99.90
59025;DHT22;44806;48.008;13.666;2022-11-18T13:44:27;9.10;99.90
59025;DHT22;44806;48.008;13.666;2022-11-18T13:47:02;9.10;99.90
59025;DHT22;44806;48.008;13.666;2022-11-18T13:49:44;9.10;99.90
59025;DHT22;44806;48.008;13.666;2022-11-18T13:52:19;9.10;99.90
59025;DHT22;44806;48.008;13.666;2022-11-18T13:54:49;9.20;99.90
59025;DHT22;44806;48.008;13.666;2022-11-18T13:57:19;9.10;99.90
59025;DHT22;44806;48.008;13.666;2022-11-18T13:59:47;9.10;99.90
59025;DHT22;44806;48.008;13.666;2022-11-18T14:02:19;9.20;99.90
59025;DHT22;44806;48.008;13.666;2022-11-18T14:04:50;9.20;99.90
59025;DHT22;44806;48.008;13.666;2022-11-18T14:07:30;9.10;99.90
59025;DHT22;44806;48.008;13.666;2022-11-18T14:09:59;9.00;99.90
59025;DHT22;44806;48.008;13.666;2022-11-18T14:12:28;9.00;99.90
59025;DHT22;44806;48.008;13.666;2022-11-18T14:15:18;9.00;99.90
59025;DHT22;44806;48.008;13.666;2022-11-18T14:17:53;8.90;99.90
59025;DHT22;44806;48.008;13.666;2022-11-18T14:20:21;8.80;99.90
59025;DHT22;44806;48.008;13.666;2022-11-18T14:22:51;8.70;99.90
59025;DHT22;44806;48.008;13.666;2022-11-18T14:25:23;8.70;99.90
59025;DHT22;44806;48.008;13.666;2022-11-18T14:27:51;8.70;99.90
59025;DHT22;44806;48.008;13.666;2022-11-18T14:30:31;8.70;99.90
59025;DHT22;44806;48.008;13.666;2022-11-18T14:33:17;8.70;99.90
59025;DHT22;44806;48.008;13.666;2022-11-18T14:35:50;8.60;99.90
59025;DHT22;44806;48.008;13.666;2022-11-18T14:38:23;8.70;99.90
59025;DHT22;44806;48.008;13.666;2022-11-18T14:40:55;8.60;99.90
59025;DHT22;44806;48.008;13.666;2022-11-18T14:43:24;8.50;99.90
59025;DHT22;44806;48.008;13.666;2022-11-18T14:45:52;8.50;99.90
59025;DHT22;44806;48.008;13.666;2022-11-18T14:48:22;8.60;99.90
59025;DHT22;44806;48.008;13.666;2022-11-18T14:50:51;8.50;99.90
59025;DHT22;44806;48.008;13.666;2022-11-18T14:53:18;8.60;99.90
59025;DHT22;44806;48.008;13.666;2022-11-18T14:55:48;8.60;99.90
59025;DHT22;44806;48.008;13.666;2022-11-18T14:58:16;8.60;99.90
59025;DHT22;44806;48.008;13.666;2022-11-18T15:00:44;8.60;99.90
59025;DHT22;44806;48.008;13.666;2022-11-18T15:03:11;8.70;99.90
59025;DHT22;44806;48.008;13.666;2022-11-18T15:05:40;8.70;99.90
59025;DHT22;44806;48.008;13.666;2022-11-18T15:08:07;8.70;99.90
59025;DHT22;44806;48.008;13.666;2022-11-18T15:10:35;8.70;99.90
59025;DHT22;44806;48.008;13.666;2022-11-18T15:13:02;8.70;99.90
59025;DHT22;44806;48.008;13.666;2022-11-18T15:15:30;8.70;99.90
59025;DHT22;44806;48.008;13.666;2022-11-18T15:17:57;8.70;99.90
59025;DHT22;44806;48.008;13.666;2022-11-18T15:20:25;8.70;99.90
59025;DHT22;44806;48.008;13.666;2022-11-18T15:22:53;8.80;99.90
59025;DHT22;44806;48.008;13.666;2022-11-18T15:25:20;8.70;99.90
59025;DHT22;44806;48.008;13.666;2022-11-18T15:27:48;8.70;99.90
59025;DHT22;44806;48.008;13.666;2022-11-18T15:30:15;8.60;99.90
59025;DHT22;44806;48.008;13.666;2022-11-18T15:32:42;8.60;99.90
59025;DHT22;44806;48.008;13.666;2022-11-18T15:35:11;8.40;99.90
59025;DHT22;44806;48.008;13.666;2022-11-18T15:37:39;8.40;99.90
59025;DHT22;44806;48.008;13.666;2022-11-18T15:40:08;8.30;99.90
59025;DHT22;44806;48.008;13.666;2022-11-18T15:42:36;8.40;99.90
59025;DHT22;44806;48.008;13.666;2022-11-18T15:45:04;8.30;99.90
59025;DHT22;44806;48.008;13.666;2022-11-18T15:47:31;8.20;99.90
59025;DHT22;44806;48.008;13.666;2022-11-18T15:49:58;8.20;99.90
59025;DHT22;44806;48.008;13.666;2022-11-18T15:52:25;8.20;99.90
59025;DHT22;44806;48.008;13.666;2022-11-18T15:54:53;8.10;99.90
59025;DHT22;44806;48.008;13.666;2022-11-18T15:57:21;8.10;99.90
59025;DHT22;44806;48.008;13.666;2022-11-18T15:59:49;8.10;99.90
59025;DHT22;44806;48.008;13.666;2022-11-18T16:02:16;8.10;99.90
59025;DHT22;44806;48.008;13.666;2022-11-18T16:04:43;8.00;99.90